createdAt,value
2017-08-03T00:01:03.787Z,13.00
2017-08-03T00:03:31.663Z,13.80
2017-08-03T00:06:03.351Z,12.80
2017-08-03T00:08:30.862Z,11.20
2017-08-03T00:10:58.385Z,10.70
2017-08-03T00:13:26.036Z,13.30
2017-08-03T00:15:53.548Z,15.50
2017-08-03T00:18:21.060Z,14.37
2017-08-03T00:20:56.390Z,14.53
2017-08-03T00:23:23.902Z,11.70
2017-08-03T00:25:55.356Z,12.90
2017-08-03T00:28:22.895Z,12.60
2017-08-03T00:30:50.431Z,17.90
2017-08-03T00:33:18.270Z,10.10
2017-08-03T00:35:48.812Z,10.50
2017-08-03T00:38:16.323Z,11.30
2017-08-03T00:40:43.824Z,9.50
2017-08-03T00:43:11.636Z,16.90
2017-08-03T00:45:39.367Z,14.10
2017-08-03T00:48:06.867Z,12.97
2017-08-03T00:50:42.161Z,15.70
2017-08-03T00:53:09.736Z,10.70
2017-08-03T00:55:37.645Z,11.87
2017-08-03T00:58:05.453Z,11.63
2017-08-03T01:00:33.003Z,9.50
2017-08-03T01:03:00.512Z,12.77
2017-08-03T01:05:28.114Z,15.23
2017-08-03T01:07:55.699Z,11.35
2017-08-03T01:10:23.275Z,12.02
2017-08-03T01:12:50.787Z,15.53
2017-08-03T01:15:18.359Z,11.83
2017-08-03T01:17:45.934Z,12.20
2017-08-03T01:20:13.478Z,12.53
2017-08-03T01:22:49.551Z,15.25
2017-08-03T01:25:17.208Z,11.02
2017-08-03T01:27:44.732Z,14.80
2017-08-03T01:30:15.588Z,11.67
2017-08-03T01:32:43.104Z,13.17
2017-08-03T01:35:10.635Z,12.00
2017-08-03T01:37:41.988Z,14.90
2017-08-03T01:40:10.056Z,11.07
2017-08-03T01:42:37.605Z,14.77
2017-08-03T01:45:05.108Z,14.70
2017-08-03T01:47:32.664Z,12.97
2017-08-03T01:50:00.283Z,15.23
2017-08-03T01:52:30.913Z,17.17
2017-08-03T01:54:58.435Z,13.93
2017-08-03T01:57:25.951Z,12.17
2017-08-03T01:59:53.690Z,9.67
2017-08-03T02:02:21.511Z,10.20
2017-08-03T02:04:49.787Z,10.27
2017-08-03T02:07:25.280Z,15.35
2017-08-03T02:09:52.809Z,13.47
2017-08-03T02:12:20.383Z,14.00
2017-08-03T02:14:47.935Z,13.13
2017-08-03T02:17:15.695Z,10.93
2017-08-03T02:19:43.509Z,16.50
2017-08-03T02:22:14.017Z,13.10
2017-08-03T02:24:44.719Z,14.30
2017-08-03T02:27:12.227Z,10.00
2017-08-03T02:29:39.750Z,13.13
2017-08-03T02:32:07.498Z,13.10
2017-08-03T02:34:35.309Z,14.05
2017-08-03T02:37:02.829Z,15.63
2017-08-03T02:39:30.397Z,14.85
2017-08-03T02:41:58.077Z,17.37
2017-08-03T02:44:25.583Z,19.80
2017-08-03T02:46:53.131Z,17.67
2017-08-03T02:49:20.640Z,20.52
2017-08-03T02:51:51.865Z,17.77
2017-08-03T02:54:23.303Z,21.77
2017-08-03T02:56:51.587Z,16.65
2017-08-03T02:59:22.762Z,22.13
2017-08-03T03:01:50.296Z,17.90
2017-08-03T03:04:17.944Z,18.83
2017-08-03T03:06:48.937Z,21.43
2017-08-03T03:09:16.447Z,18.52
2017-08-03T03:11:43.967Z,22.48
2017-08-03T03:14:11.523Z,17.90
2017-08-03T03:16:39.037Z,19.73
2017-08-03T03:19:06.733Z,22.63
2017-08-03T03:21:37.435Z,23.17
2017-08-03T03:24:04.983Z,22.02
2017-08-03T03:26:36.232Z,19.83
2017-08-03T03:29:03.926Z,20.40
2017-08-03T03:31:31.472Z,21.17
2017-08-03T03:33:59.137Z,16.60
2017-08-03T03:36:26.651Z,16.07
2017-08-03T03:38:54.943Z,20.07
2017-08-03T03:41:26.115Z,19.00
2017-08-03T03:43:53.674Z,24.02
2017-08-03T03:46:21.336Z,20.02
2017-08-03T03:48:48.903Z,19.33
2017-08-03T03:51:16.408Z,21.73
2017-08-03T03:53:43.920Z,20.40
2017-08-03T03:56:14.694Z,17.80
2017-08-03T03:58:49.700Z,18.63
2017-08-03T04:01:17.257Z,24.13
2017-08-03T04:03:44.810Z,26.30
2017-08-03T04:06:12.351Z,21.80
2017-08-03T04:08:39.868Z,22.27
2017-08-03T04:11:10.875Z,19.97
2017-08-03T04:13:38.429Z,28.63
2017-08-03T04:16:05.958Z,29.20
2017-08-03T04:18:33.653Z,30.53
2017-08-03T04:21:01.414Z,25.40
2017-08-03T04:23:32.889Z,27.87
2017-08-03T04:26:00.630Z,25.50
2017-08-03T04:28:28.387Z,22.30
2017-08-03T04:30:55.940Z,30.83
2017-08-03T04:33:23.716Z,21.67
2017-08-03T04:35:51.663Z,19.57
2017-08-03T04:38:19.203Z,21.80
2017-08-03T04:40:55.196Z,20.90
2017-08-03T04:43:25.733Z,21.83
2017-08-03T04:45:53.243Z,22.00
2017-08-03T04:48:21.571Z,26.43
2017-08-03T04:50:49.096Z,27.83
2017-08-03T04:53:19.859Z,21.00
2017-08-03T04:55:52.071Z,20.50
2017-08-03T04:58:19.595Z,24.43
2017-08-03T05:00:47.146Z,20.70
2017-08-03T05:03:14.653Z,19.30
2017-08-03T05:05:43.309Z,21.13
2017-08-03T05:08:11.354Z,24.20
2017-08-03T05:10:38.867Z,16.73
2017-08-03T05:13:07.496Z,20.70
2017-08-03T05:15:35.007Z,18.23
2017-08-03T05:18:02.565Z,20.23
2017-08-03T05:20:30.088Z,21.20
2017-08-03T05:22:57.608Z,17.73
2017-08-03T05:25:29.416Z,19.80
2017-08-03T05:27:56.992Z,21.93
2017-08-03T05:30:24.530Z,18.87
2017-08-03T05:32:52.044Z,21.63
2017-08-03T05:35:19.581Z,24.23
2017-08-03T05:37:47.877Z,23.30
2017-08-03T05:40:15.475Z,31.00
2017-08-03T05:42:43.125Z,22.50
2017-08-03T05:45:10.693Z,22.20
2017-08-03T05:47:38.364Z,27.77
2017-08-03T05:50:05.956Z,21.00
2017-08-03T05:52:33.675Z,25.20
2017-08-03T05:55:01.187Z,23.60
2017-08-03T05:57:33.094Z,23.60
2017-08-03T06:00:00.631Z,19.30
2017-08-03T06:02:28.292Z,25.00
2017-08-03T06:04:56.074Z,26.30
2017-08-03T06:07:24.139Z,24.57
2017-08-03T06:09:56.213Z,22.00
2017-08-03T06:12:23.728Z,23.40
2017-08-03T06:14:52.052Z,21.00
2017-08-03T06:17:19.810Z,28.03
2017-08-03T06:19:47.322Z,29.93
2017-08-03T06:22:16.511Z,25.90
2017-08-03T06:24:48.152Z,39.90
2017-08-03T06:27:25.655Z,29.93
2017-08-03T06:29:53.485Z,29.83
2017-08-03T06:32:21.016Z,25.47
2017-08-03T06:34:48.615Z,47.87
2017-08-03T06:37:16.130Z,26.00
2017-08-03T06:39:44.406Z,50.50
2017-08-03T06:42:15.567Z,32.67
2017-08-03T06:44:43.141Z,29.47
2017-08-03T06:47:10.651Z,27.97
2017-08-03T06:49:38.260Z,18.63
2017-08-03T06:52:06.031Z,23.23
2017-08-03T06:54:33.528Z,27.70
2017-08-03T06:57:04.728Z,24.00
2017-08-03T06:59:35.850Z,18.83
2017-08-03T07:02:03.440Z,19.40
2017-08-03T07:04:31.003Z,20.40
2017-08-03T07:06:58.508Z,24.47
2017-08-03T07:09:26.799Z,26.50
2017-08-03T07:11:54.351Z,26.67
2017-08-03T07:14:22.632Z,25.07
2017-08-03T07:16:50.184Z,25.33
2017-08-03T07:19:18.478Z,23.40
2017-08-03T07:21:46.031Z,29.80
2017-08-03T07:24:13.857Z,26.83
2017-08-03T07:26:44.243Z,26.30
2017-08-03T07:29:12.000Z,23.60
2017-08-03T07:31:43.871Z,23.80
2017-08-03T07:34:11.376Z,25.40
2017-08-03T07:36:42.081Z,22.43
2017-08-03T07:39:09.748Z,26.13
2017-08-03T07:41:40.684Z,22.43
2017-08-03T07:44:08.187Z,27.17
2017-08-03T07:46:36.808Z,23.23
2017-08-03T07:49:04.343Z,28.43
2017-08-03T07:51:31.884Z,30.30
2017-08-03T07:53:59.791Z,22.77
2017-08-03T07:56:27.469Z,36.00
2017-08-03T07:58:54.979Z,29.43
2017-08-03T08:01:22.537Z,31.37
2017-08-03T08:03:50.220Z,52.87
2017-08-03T08:06:17.945Z,42.40
2017-08-03T08:08:45.487Z,40.83
2017-08-03T08:11:13.013Z,47.00
2017-08-03T08:13:53.012Z,29.63
2017-08-03T08:16:20.967Z,39.63
2017-08-03T08:18:53.094Z,37.07
2017-08-03T08:21:20.627Z,35.70
2017-08-03T08:23:48.126Z,31.80
2017-08-03T08:26:15.773Z,44.80
2017-08-03T08:28:43.307Z,35.10
2017-08-03T08:31:14.991Z,33.93
2017-08-03T08:33:42.503Z,49.93
2017-08-03T08:36:10.827Z,33.20
2017-08-03T08:38:38.559Z,49.17
2017-08-03T08:41:06.397Z,37.90
2017-08-03T08:43:37.860Z,33.97
2017-08-03T08:46:05.401Z,34.67
2017-08-03T08:48:32.942Z,32.53
2017-08-03T08:51:00.464Z,30.53
2017-08-03T08:53:28.028Z,35.47
2017-08-03T08:55:55.568Z,32.10
2017-08-03T08:58:23.455Z,31.43
2017-08-03T09:00:51.084Z,30.33
2017-08-03T09:03:18.665Z,34.70
2017-08-03T09:05:46.224Z,35.23
2017-08-03T09:08:13.908Z,33.87
2017-08-03T09:10:41.663Z,26.97
2017-08-03T09:13:09.174Z,29.13
2017-08-03T09:15:41.063Z,30.77
2017-08-03T09:18:12.282Z,28.73
2017-08-03T09:20:43.792Z,32.40
2017-08-03T09:23:11.296Z,28.97
2017-08-03T09:25:38.816Z,32.90
2017-08-03T09:28:09.219Z,37.53
2017-08-03T09:30:36.741Z,35.87
2017-08-03T09:33:05.072Z,33.40
2017-08-03T09:35:32.574Z,25.77
2017-08-03T09:38:00.122Z,29.97
2017-08-03T09:40:27.666Z,25.90
2017-08-03T09:42:55.172Z,35.10
2017-08-03T09:45:26.983Z,34.30
2017-08-03T09:47:54.509Z,35.33
2017-08-03T09:50:22.106Z,32.50
2017-08-03T09:52:49.618Z,31.00
2017-08-03T09:55:17.125Z,30.13
2017-08-03T09:57:45.580Z,29.23
2017-08-03T10:00:13.237Z,28.13
2017-08-03T10:02:41.006Z,40.63
2017-08-03T10:05:08.551Z,36.13
2017-08-03T10:07:36.067Z,35.53
2017-08-03T10:10:03.596Z,29.13
2017-08-03T10:12:31.112Z,39.83
2017-08-03T10:15:09.339Z,27.83
2017-08-03T10:17:44.460Z,37.87
2017-08-03T10:20:11.984Z,35.30
2017-08-03T10:22:39.527Z,33.10
2017-08-03T10:25:07.155Z,39.00
2017-08-03T10:27:34.916Z,34.90
2017-08-03T10:30:02.711Z,35.70
2017-08-03T10:32:30.219Z,34.83
2017-08-03T10:34:58.637Z,33.23
2017-08-03T10:37:26.198Z,30.00
2017-08-03T10:39:53.704Z,26.33
2017-08-03T10:42:21.208Z,27.10
2017-08-03T10:44:52.647Z,31.70
2017-08-03T10:47:20.168Z,23.30
2017-08-03T10:49:48.811Z,26.20
2017-08-03T10:52:16.489Z,27.60
2017-08-03T10:54:43.990Z,20.57
2017-08-03T10:57:11.537Z,21.33
2017-08-03T10:59:40.099Z,23.10
2017-08-03T11:02:07.677Z,23.93
2017-08-03T11:04:35.490Z,21.47
2017-08-03T11:07:02.997Z,22.17
2017-08-03T11:09:30.551Z,21.50
2017-08-03T11:11:58.062Z,24.13
2017-08-03T11:14:25.572Z,20.90
2017-08-03T11:17:04.680Z,24.17
2017-08-03T11:19:36.124Z,23.20
2017-08-03T11:22:03.631Z,28.27
2017-08-03T11:24:32.045Z,24.53
2017-08-03T11:26:59.580Z,27.93
2017-08-03T11:29:27.082Z,24.07
2017-08-03T11:31:54.615Z,21.43
2017-08-03T11:34:22.152Z,18.47
2017-08-03T11:36:49.652Z,19.73
2017-08-03T11:39:17.251Z,27.27
2017-08-03T11:41:44.751Z,23.67
2017-08-03T11:44:12.811Z,16.70
2017-08-03T11:46:40.323Z,19.70
2017-08-03T11:49:08.036Z,19.57
2017-08-03T11:51:35.602Z,20.20
2017-08-03T11:54:03.514Z,17.30
2017-08-03T11:56:31.022Z,14.40
2017-08-03T11:58:58.588Z,13.73
2017-08-03T12:01:26.107Z,14.60
2017-08-03T12:03:53.672Z,13.93
2017-08-03T12:06:21.235Z,18.27
2017-08-03T12:08:49.514Z,19.50
2017-08-03T12:11:17.066Z,20.07
2017-08-03T12:13:45.327Z,18.40
2017-08-03T12:16:12.940Z,17.27
2017-08-03T12:18:44.589Z,16.00
2017-08-03T12:21:20.645Z,18.77
2017-08-03T12:23:48.228Z,19.67
2017-08-03T12:26:15.798Z,19.70
2017-08-03T12:28:43.304Z,15.13
2017-08-03T12:31:10.802Z,18.47
2017-08-03T12:33:42.847Z,11.07
2017-08-03T12:36:10.391Z,17.63
2017-08-03T12:38:37.891Z,14.27
2017-08-03T12:41:09.837Z,18.93
2017-08-03T12:43:37.340Z,15.07
2017-08-03T12:46:04.891Z,13.33
2017-08-03T12:48:32.452Z,16.20
2017-08-03T12:51:00.576Z,16.97
2017-08-03T12:53:28.076Z,16.13
2017-08-03T12:55:56.045Z,18.70
2017-08-03T12:58:23.579Z,14.20
2017-08-03T13:00:51.108Z,19.57
2017-08-03T13:03:22.155Z,14.83
2017-08-03T13:05:49.667Z,19.10
2017-08-03T13:08:17.212Z,16.67
2017-08-03T13:10:44.788Z,17.67
2017-08-03T13:13:12.284Z,18.73
2017-08-03T13:15:39.828Z,18.07
2017-08-03T13:18:08.104Z,18.30
2017-08-03T13:20:38.975Z,12.93
2017-08-03T13:23:06.475Z,16.87
2017-08-03T13:25:38.494Z,24.33
2017-08-03T13:28:06.016Z,15.80
2017-08-03T13:30:34.360Z,13.70
2017-08-03T13:33:15.924Z,15.50
2017-08-03T13:35:43.492Z,9.80
2017-08-03T13:38:11.004Z,12.20
2017-08-03T13:40:38.503Z,11.57
2017-08-03T13:43:06.044Z,18.00
2017-08-03T13:45:33.779Z,15.47
2017-08-03T13:48:01.579Z,14.80
2017-08-03T13:50:29.111Z,11.33
2017-08-03T13:53:01.203Z,16.13
2017-08-03T13:55:28.804Z,18.63
2017-08-03T13:57:56.734Z,13.83
2017-08-03T14:00:24.246Z,16.20
2017-08-03T14:02:51.771Z,10.90
2017-08-03T14:05:22.495Z,10.63
2017-08-03T14:07:50.004Z,11.87
2017-08-03T14:10:17.565Z,15.00
2017-08-03T14:12:45.246Z,10.93
2017-08-03T14:15:12.821Z,12.60
2017-08-03T14:17:44.278Z,15.93
2017-08-03T14:20:11.800Z,16.00
2017-08-03T14:22:40.389Z,16.20
2017-08-03T14:25:07.897Z,13.07
2017-08-03T14:27:35.401Z,14.30
2017-08-03T14:30:03.140Z,14.07
2017-08-03T14:32:30.640Z,9.47
2017-08-03T14:34:58.144Z,11.40
2017-08-03T14:37:28.844Z,12.30
2017-08-03T14:39:56.407Z,14.27
2017-08-03T14:42:24.092Z,12.13
2017-08-03T14:44:51.624Z,15.30
2017-08-03T14:47:19.199Z,13.57
2017-08-03T14:49:46.719Z,11.90
2017-08-03T14:52:14.215Z,15.73
2017-08-03T14:54:44.780Z,21.80
2017-08-03T14:57:12.290Z,9.93
2017-08-03T14:59:39.830Z,11.13
2017-08-03T15:02:07.340Z,11.20
2017-08-03T15:04:34.835Z,13.17
2017-08-03T15:07:02.644Z,14.00
2017-08-03T15:09:30.140Z,10.43
2017-08-03T15:11:58.880Z,12.17
2017-08-03T15:14:26.391Z,16.50
2017-08-03T15:16:54.879Z,9.03
2017-08-03T15:19:22.384Z,15.57
2017-08-03T15:21:49.923Z,20.83
2017-08-03T15:24:17.459Z,12.80
2017-08-03T15:26:45.155Z,12.27
2017-08-03T15:29:12.816Z,11.43
2017-08-03T15:31:40.343Z,14.83
2017-08-03T15:34:08.635Z,15.00
2017-08-03T15:36:40.024Z,14.00
2017-08-03T15:39:07.577Z,16.07
2017-08-03T15:41:35.327Z,11.33
2017-08-03T15:44:03.951Z,13.37
2017-08-03T15:46:31.465Z,14.60
2017-08-03T15:49:01.995Z,21.03
2017-08-03T15:51:29.505Z,10.73
2017-08-03T15:54:01.238Z,10.43
2017-08-03T15:56:28.953Z,17.27
2017-08-03T15:58:56.446Z,11.67
2017-08-03T16:01:24.192Z,14.50
2017-08-03T16:03:51.756Z,18.60
2017-08-03T16:06:19.283Z,17.43
2017-08-03T16:08:51.186Z,19.00
2017-08-03T16:11:18.748Z,23.63
2017-08-03T16:13:46.276Z,15.77
2017-08-03T16:16:13.858Z,12.40
2017-08-03T16:18:41.424Z,16.83
2017-08-03T16:21:08.931Z,14.93
2017-08-03T16:23:36.819Z,20.70
2017-08-03T16:26:04.327Z,11.60
2017-08-03T16:28:31.827Z,13.93
2017-08-03T16:30:59.389Z,15.60
2017-08-03T16:33:26.919Z,18.10
2017-08-03T16:35:54.410Z,14.53
2017-08-03T16:38:24.961Z,20.60
2017-08-03T16:40:52.982Z,16.50
2017-08-03T16:43:20.475Z,17.40
2017-08-03T16:45:48.867Z,25.80
2017-08-03T16:48:16.377Z,13.50
2017-08-03T16:50:47.774Z,16.60
2017-08-03T16:53:19.322Z,17.33
2017-08-03T16:55:46.923Z,16.20
2017-08-03T16:58:14.458Z,22.03
2017-08-03T17:00:41.951Z,14.93
2017-08-03T17:03:09.498Z,17.10
2017-08-03T17:05:37.007Z,14.33
2017-08-03T17:08:04.599Z,18.57
2017-08-03T17:10:33.163Z,20.07
2017-08-03T17:13:00.704Z,12.07
2017-08-03T17:15:28.520Z,16.00
2017-08-03T17:17:56.026Z,12.60
2017-08-03T17:20:27.252Z,14.13
2017-08-03T17:22:54.772Z,20.10
2017-08-03T17:25:25.970Z,13.73
2017-08-03T17:27:53.492Z,18.40
2017-08-03T17:30:21.040Z,17.53
2017-08-03T17:32:48.599Z,14.60
2017-08-03T17:35:16.099Z,14.53
2017-08-03T17:37:46.916Z,26.17
2017-08-03T17:40:14.479Z,17.60
2017-08-03T17:42:42.792Z,16.97
2017-08-03T17:45:10.305Z,22.70
2017-08-03T17:47:38.283Z,23.17
2017-08-03T17:50:05.902Z,18.00
2017-08-03T17:52:33.437Z,16.97
2017-08-03T17:55:01.303Z,19.23
2017-08-03T17:57:28.813Z,16.00
2017-08-03T17:59:56.357Z,25.47
2017-08-03T18:02:23.997Z,19.27
2017-08-03T18:04:51.512Z,17.63
2017-08-03T18:07:19.964Z,20.00
2017-08-03T18:09:50.657Z,20.43
2017-08-03T18:12:18.167Z,22.17
2017-08-03T18:14:45.979Z,19.83
2017-08-03T18:17:13.625Z,23.87
2017-08-03T18:19:41.171Z,30.30
2017-08-03T18:22:12.595Z,18.97
2017-08-03T18:24:40.100Z,28.87
2017-08-03T18:27:07.780Z,15.10
2017-08-03T18:29:35.549Z,19.87
2017-08-03T18:32:03.168Z,21.37
2017-08-03T18:34:30.818Z,22.23
2017-08-03T18:36:59.087Z,18.17
2017-08-03T18:39:30.449Z,21.93
2017-08-03T18:41:58.050Z,14.60
2017-08-03T18:44:25.544Z,15.73
2017-08-03T18:46:53.087Z,17.67
2017-08-03T18:49:20.595Z,16.27
2017-08-03T18:51:52.180Z,14.47
2017-08-03T18:54:19.688Z,20.10
2017-08-03T18:56:47.314Z,16.80
2017-08-03T18:59:14.859Z,28.50
2017-08-03T19:01:42.398Z,17.93
2017-08-03T19:04:09.949Z,16.10
2017-08-03T19:06:37.555Z,26.07
2017-08-03T19:09:05.137Z,25.10
2017-08-03T19:11:32.780Z,15.57
2017-08-03T19:14:00.284Z,20.83
2017-08-03T19:16:28.581Z,20.30
2017-08-03T19:18:56.706Z,23.43
2017-08-03T19:21:24.248Z,20.53
2017-08-03T19:23:52.162Z,13.60
2017-08-03T19:26:19.790Z,16.70
2017-08-03T19:28:47.656Z,19.00
2017-08-03T19:31:15.220Z,27.03
2017-08-03T19:33:42.861Z,14.67
2017-08-03T19:36:10.473Z,19.63
2017-08-03T19:38:38.064Z,20.33
2017-08-03T19:41:05.576Z,18.70
2017-08-03T19:43:33.168Z,14.30
2017-08-03T19:46:00.716Z,16.23
2017-08-03T19:48:28.232Z,14.93
2017-08-03T19:50:55.762Z,17.47
2017-08-03T19:53:23.255Z,21.83
2017-08-03T19:55:53.740Z,19.57
2017-08-03T19:58:21.289Z,16.53
2017-08-03T20:00:48.888Z,15.47
2017-08-03T20:03:16.447Z,15.70
2017-08-03T20:05:44.184Z,20.10
2017-08-03T20:08:31.315Z,15.30
2017-08-03T20:10:59.332Z,18.97
2017-08-03T20:13:26.873Z,15.90
2017-08-03T20:15:54.409Z,16.97
2017-08-03T20:18:22.050Z,20.50
2017-08-03T20:20:49.626Z,12.53
2017-08-03T20:23:21.001Z,20.07
2017-08-03T20:25:48.517Z,16.80
2017-08-03T20:28:16.194Z,17.53
2017-08-03T20:30:43.739Z,12.87
2017-08-03T20:33:11.275Z,18.90
2017-08-03T20:35:38.867Z,16.97
2017-08-03T20:38:06.627Z,19.30
2017-08-03T20:40:34.130Z,15.60
2017-08-03T20:43:01.656Z,18.10
2017-08-03T20:45:29.298Z,15.13
2017-08-03T20:47:57.168Z,16.00
2017-08-03T20:50:24.824Z,20.63
2017-08-03T20:52:52.599Z,21.53
2017-08-03T20:55:20.112Z,16.17
2017-08-03T20:57:48.395Z,18.83
2017-08-03T21:00:15.951Z,13.80
2017-08-03T21:02:44.274Z,19.97
2017-08-03T21:05:11.821Z,12.87
2017-08-03T21:07:39.348Z,15.27
2017-08-03T21:10:11.039Z,20.40
2017-08-03T21:12:38.543Z,19.70
2017-08-03T21:15:06.267Z,17.77
2017-08-03T21:17:33.795Z,19.23
2017-08-03T21:20:01.485Z,20.43
2017-08-03T21:22:29.046Z,15.87
2017-08-03T21:24:56.547Z,14.67
2017-08-03T21:27:27.027Z,22.07
2017-08-03T21:29:54.667Z,16.40
2017-08-03T21:32:22.208Z,15.97
2017-08-03T21:34:49.769Z,14.90
2017-08-03T21:37:17.276Z,15.37
2017-08-03T21:39:44.784Z,27.00
2017-08-03T21:42:13.178Z,23.83
2017-08-03T21:44:40.743Z,19.03
2017-08-03T21:47:08.307Z,16.20
2017-08-03T21:49:35.825Z,15.40
2017-08-03T21:52:03.375Z,14.83
2017-08-03T21:54:30.898Z,16.00
2017-08-03T21:56:58.494Z,14.97
2017-08-03T21:59:26.807Z,14.60
2017-08-03T22:01:54.359Z,16.10
2017-08-03T22:04:22.970Z,17.43
2017-08-03T22:06:50.541Z,14.90
2017-08-03T22:09:18.199Z,15.80
2017-08-03T22:11:45.704Z,21.50
2017-08-03T22:14:13.301Z,21.67
2017-08-03T22:16:40.834Z,17.80
2017-08-03T22:19:08.340Z,16.30
2017-08-03T22:21:36.072Z,16.73
2017-08-03T22:24:03.787Z,15.73
2017-08-03T22:26:35.001Z,21.23
2017-08-03T22:29:02.507Z,12.97
2017-08-03T22:31:30.018Z,18.13
2017-08-03T22:33:57.564Z,29.30
2017-08-03T22:36:25.087Z,16.57
2017-08-03T22:38:52.867Z,19.10
2017-08-03T22:41:20.380Z,18.33
2017-08-03T22:43:47.906Z,16.93
2017-08-03T22:46:15.733Z,19.40
2017-08-03T22:48:43.654Z,17.50
2017-08-03T22:51:11.175Z,12.67
2017-08-03T22:53:39.465Z,19.50
2017-08-03T22:56:10.988Z,15.90
2017-08-03T22:58:38.496Z,14.90
2017-08-03T23:01:06.437Z,14.83
2017-08-03T23:03:33.968Z,19.07
2017-08-03T23:06:01.794Z,20.43
2017-08-03T23:08:29.333Z,19.03
2017-08-03T23:10:56.915Z,18.07
2017-08-03T23:13:28.963Z,17.30
2017-08-03T23:15:56.529Z,23.77
2017-08-03T23:18:24.159Z,17.50
2017-08-03T23:20:51.678Z,18.37
2017-08-03T23:23:19.675Z,17.90
2017-08-03T23:25:47.224Z,13.67
2017-08-03T23:28:14.732Z,14.93
2017-08-03T23:30:42.315Z,16.97
2017-08-03T23:33:09.839Z,17.70
2017-08-03T23:35:37.339Z,15.63
2017-08-03T23:38:04.863Z,15.53
2017-08-03T23:40:32.756Z,14.13
2017-08-03T23:43:11.967Z,11.23
2017-08-03T23:45:39.481Z,15.73
2017-08-03T23:48:07.015Z,20.07
2017-08-03T23:50:35.519Z,12.60
2017-08-03T23:53:03.087Z,15.50
2017-08-03T23:55:31.377Z,12.30
2017-08-03T23:57:58.899Z,13.50
